CheckWX is a tool to help pilots better visualize weather data.  It is not intended as a substitute for an official pre-flight weather briefing.

20:37:04 UTC

KHOU METAR
William P Hobby Airport
Houston, Texas, USA
Current

44 mins ago

KHOU 161953Z COR 17012G19KT 10SM FEW032 BKN250 34/24 A3001 RMK AO2 SLP166 T03390244
Observed
Jul-16 @ 19:53 UTC
Wind
  • 170° at 12 KTS
  • Gusting to 19 KTS
Visibility
10 SM
Flight Rules
VFR
Cloud Levels
  • Few at 3,200' AGL
  • Broken at 25,000' AGL
Temperature
34°C / 93°F
Dewpoint
24°C / 75°F
Heat Index
41°C / 105°F
Humidity
56%
Altimeter
30.01" Hg
Pressure
1016.22 hPa
Previous

2 hours ago

KHOU 161853Z 18012KT 10SM SCT035 BKN250 34/24 A3002 RMK AO2 SLP169 T03390239
Observed
Jul-16 @ 18:53 UTC
Wind
  • 180° at 12 KTS
Visibility
10 SM
Flight Rules
VFR
Cloud Levels
  • Scattered at 3,500' AGL
  • Broken at 25,000' AGL
Temperature
34°C / 93°F
Dewpoint
24°C / 75°F
Heat Index
41°C / 105°F
Humidity
56%
Altimeter
30.02" Hg
Pressure
1016.62 hPa
Previous

3 hours ago

KHOU 161753Z 18011KT 10SM SCT035 SCT250 34/24 A3003 RMK AO2 SLP171 T03390239 10344 20278 50000
Observed
Jul-16 @ 17:53 UTC
Wind
  • 180° at 11 KTS
Visibility
10 SM
Flight Rules
VFR
Cloud Levels
  • Scattered at 3,500' AGL
  • Scattered at 25,000' AGL
Temperature
34°C / 93°F
Dewpoint
24°C / 75°F
Heat Index
41°C / 105°F
Humidity
56%
Altimeter
30.03" Hg
Pressure
1016.92 hPa